sensor_id;sensor_type;location;lat;lon;timestamp;temperature;humidity
40253;DHT22;25972;51.854;4.534;2023-06-24T00:01:31;19.10;1.00
40253;DHT22;25972;51.854;4.534;2023-06-24T00:03:57;19.10;1.00
40253;DHT22;25972;51.854;4.534;2023-06-24T00:06:24;19.00;1.00
40253;DHT22;25972;51.854;4.534;2023-06-24T00:08:52;19.00;1.00
40253;DHT22;25972;51.854;4.534;2023-06-24T00:11:26;18.90;1.00
40253;DHT22;25972;51.854;4.534;2023-06-24T00:13:53;18.90;1.00
40253;DHT22;25972;51.854;4.534;2023-06-24T00:16:19;18.90;1.00
40253;DHT22;25972;51.854;4.534;2023-06-24T00:18:52;18.90;1.00
40253;DHT22;25972;51.854;4.534;2023-06-24T00:21:19;18.80;1.00
40253;DHT22;25972;51.854;4.534;2023-06-24T00:23:46;18.80;1.00
40253;DHT22;25972;51.854;4.534;2023-06-24T00:26:15;18.80;1.00
40253;DHT22;25972;51.854;4.534;2023-06-24T00:28:42;18.70;1.00
40253;DHT22;25972;51.854;4.534;2023-06-24T00:31:08;18.60;1.00
40253;DHT22;25972;51.854;4.534;2023-06-24T00:33:34;18.60;1.00
40253;DHT22;25972;51.854;4.534;2023-06-24T00:36:01;18.60;1.00
40253;DHT22;25972;51.854;4.534;2023-06-24T00:38:27;18.60;1.00
40253;DHT22;25972;51.854;4.534;2023-06-24T00:40:59;18.50;1.00
40253;DHT22;25972;51.854;4.534;2023-06-24T00:43:25;18.50;1.00
40253;DHT22;25972;51.854;4.534;2023-06-24T00:45:51;18.50;1.00
40253;DHT22;25972;51.854;4.534;2023-06-24T00:48:19;18.40;1.00
40253;DHT22;25972;51.854;4.534;2023-06-24T00:50:47;18.30;1.00
40253;DHT22;25972;51.854;4.534;2023-06-24T00:53:15;18.30;6.30
40253;DHT22;25972;51.854;4.534;2023-06-24T00:55:41;18.20;18.00
40253;DHT22;25972;51.854;4.534;2023-06-24T00:58:09;18.20;23.50
40253;DHT22;25972;51.854;4.534;2023-06-24T01:00:35;18.20;30.30
40253;DHT22;25972;51.854;4.534;2023-06-24T01:03:02;18.20;44.50
40253;DHT22;25972;51.854;4.534;2023-06-24T01:05:29;18.20;59.40
40253;DHT22;25972;51.854;4.534;2023-06-24T01:08:01;18.10;70.60
40253;DHT22;25972;51.854;4.534;2023-06-24T01:10:28;18.10;79.90
40253;DHT22;25972;51.854;4.534;2023-06-24T01:12:54;18.00;81.10
40253;DHT22;25972;51.854;4.534;2023-06-24T01:15:21;18.00;91.20
40253;DHT22;25972;51.854;4.534;2023-06-24T01:17:54;18.00;94.30
40253;DHT22;25972;51.854;4.534;2023-06-24T01:20:27;18.00;98.50
40253;DHT22;25972;51.854;4.534;2023-06-24T01:23:16;17.90;99.90
40253;DHT22;25972;51.854;4.534;2023-06-24T01:25:59;17.90;99.90
40253;DHT22;25972;51.854;4.534;2023-06-24T01:31:40;17.80;99.90
40253;DHT22;25972;51.854;4.534;2023-06-24T01:34:15;17.80;99.90
40253;DHT22;25972;51.854;4.534;2023-06-24T01:36:51;17.80;99.90
40253;DHT22;25972;51.854;4.534;2023-06-24T01:39:22;17.80;99.90
40253;DHT22;25972;51.854;4.534;2023-06-24T01:41:57;17.70;99.90
40253;DHT22;25972;51.854;4.534;2023-06-24T01:44:25;17.70;99.90
40253;DHT22;25972;51.854;4.534;2023-06-24T01:46:57;17.60;99.90
40253;DHT22;25972;51.854;4.534;2023-06-24T01:49:27;17.60;99.90
40253;DHT22;25972;51.854;4.534;2023-06-24T01:51:56;17.60;99.90
40253;DHT22;25972;51.854;4.534;2023-06-24T01:54:24;17.60;99.90
40253;DHT22;25972;51.854;4.534;2023-06-24T01:56:52;17.60;99.90
40253;DHT22;25972;51.854;4.534;2023-06-24T01:59:21;17.60;99.90
40253;DHT22;25972;51.854;4.534;2023-06-24T02:01:47;17.60;99.90
40253;DHT22;25972;51.854;4.534;2023-06-24T02:04:16;17.60;99.90
40253;DHT22;25972;51.854;4.534;2023-06-24T02:06:43;17.60;99.90
40253;DHT22;25972;51.854;4.534;2023-06-24T02:09:10;17.50;99.90
40253;DHT22;25972;51.854;4.534;2023-06-24T02:11:37;17.50;99.90
40253;DHT22;25972;51.854;4.534;2023-06-24T02:14:05;17.50;99.90
40253;DHT22;25972;51.854;4.534;2023-06-24T02:16:33;17.50;99.90
40253;DHT22;25972;51.854;4.534;2023-06-24T02:19:01;17.50;99.90
40253;DHT22;25972;51.854;4.534;2023-06-24T02:21:29;17.50;99.90
40253;DHT22;25972;51.854;4.534;2023-06-24T02:23:56;17.50;99.90
40253;DHT22;25972;51.854;4.534;2023-06-24T02:26:23;17.50;99.90
40253;DHT22;25972;51.854;4.534;2023-06-24T02:28:52;17.40;99.90
40253;DHT22;25972;51.854;4.534;2023-06-24T02:31:19;17.40;99.90
40253;DHT22;25972;51.854;4.534;2023-06-24T02:33:46;17.40;99.90
40253;DHT22;25972;51.854;4.534;2023-06-24T02:36:12;17.40;99.90
40253;DHT22;25972;51.854;4.534;2023-06-24T02:38:39;17.40;99.90
40253;DHT22;25972;51.854;4.534;2023-06-24T02:41:06;17.40;99.90
40253;DHT22;25972;51.854;4.534;2023-06-24T02:43:32;17.40;99.90
40253;DHT22;25972;51.854;4.534;2023-06-24T02:46:01;17.40;99.90
40253;DHT22;25972;51.854;4.534;2023-06-24T02:48:30;17.40;99.90
40253;DHT22;25972;51.854;4.534;2023-06-24T02:50:58;17.40;99.90
40253;DHT22;25972;51.854;4.534;2023-06-24T02:53:25;17.40;99.90
40253;DHT22;25972;51.854;4.534;2023-06-24T02:55:53;17.40;99.90
40253;DHT22;25972;51.854;4.534;2023-06-24T02:58:20;17.40;99.90
40253;DHT22;25972;51.854;4.534;2023-06-24T03:01:08;17.40;99.90
40253;DHT22;25972;51.854;4.534;2023-06-24T03:03:44;17.40;99.90
40253;DHT22;25972;51.854;4.534;2023-06-24T03:06:15;17.40;99.90
40253;DHT22;25972;51.854;4.534;2023-06-24T03:08:43;17.40;99.90
40253;DHT22;25972;51.854;4.534;2023-06-24T03:11:13;17.40;99.90
40253;DHT22;25972;51.854;4.534;2023-06-24T03:13:40;17.40;99.90
40253;DHT22;25972;51.854;4.534;2023-06-24T03:16:20;17.40;99.90
40253;DHT22;25972;51.854;4.534;2023-06-24T03:18:56;17.40;99.90
40253;DHT22;25972;51.854;4.534;2023-06-24T03:21:22;17.40;99.90
40253;DHT22;25972;51.854;4.534;2023-06-24T03:23:54;17.40;99.90
40253;DHT22;25972;51.854;4.534;2023-06-24T03:26:39;17.40;99.90
40253;DHT22;25972;51.854;4.534;2023-06-24T03:29:08;17.30;99.90
40253;DHT22;25972;51.854;4.534;2023-06-24T03:31:37;17.40;99.90
40253;DHT22;25972;51.854;4.534;2023-06-24T03:34:03;17.40;99.90
40253;DHT22;25972;51.854;4.534;2023-06-24T03:36:29;17.40;99.90
40253;DHT22;25972;51.854;4.534;2023-06-24T03:38:55;17.40;99.90
40253;DHT22;25972;51.854;4.534;2023-06-24T03:41:21;17.40;99.90
40253;DHT22;25972;51.854;4.534;2023-06-24T03:43:49;17.40;99.90
40253;DHT22;25972;51.854;4.534;2023-06-24T03:46:16;17.40;99.90
40253;DHT22;25972;51.854;4.534;2023-06-24T03:48:43;17.40;99.90
40253;DHT22;25972;51.854;4.534;2023-06-24T03:51:09;17.40;99.90
40253;DHT22;25972;51.854;4.534;2023-06-24T03:53:36;17.40;99.90
40253;DHT22;25972;51.854;4.534;2023-06-24T03:56:03;17.40;99.90
40253;DHT22;25972;51.854;4.534;2023-06-24T03:58:29;17.40;99.90
40253;DHT22;25972;51.854;4.534;2023-06-24T04:00:58;17.40;99.90
40253;DHT22;25972;51.854;4.534;2023-06-24T04:03:25;17.40;99.90
40253;DHT22;25972;51.854;4.534;2023-06-24T04:05:55;17.40;99.90
40253;DHT22;25972;51.854;4.534;2023-06-24T04:08:21;17.50;99.90
40253;DHT22;25972;51.854;4.534;2023-06-24T04:10:47;17.50;99.90
40253;DHT22;25972;51.854;4.534;2023-06-24T04:13:14;17.50;99.90
40253;DHT22;25972;51.854;4.534;2023-06-24T04:15:40;17.50;99.90
40253;DHT22;25972;51.854;4.534;2023-06-24T04:18:08;17.50;99.90
40253;DHT22;25972;51.854;4.534;2023-06-24T04:20:37;17.60;99.90
40253;DHT22;25972;51.854;4.534;2023-06-24T04:23:03;17.60;99.90
40253;DHT22;25972;51.854;4.534;2023-06-24T04:25:30;17.60;99.90
40253;DHT22;25972;51.854;4.534;2023-06-24T04:27:57;17.60;99.90
40253;DHT22;25972;51.854;4.534;2023-06-24T04:30:23;17.60;99.90
40253;DHT22;25972;51.854;4.534;2023-06-24T04:32:50;17.60;99.90
40253;DHT22;25972;51.854;4.534;2023-06-24T04:35:17;17.70;99.90
40253;DHT22;25972;51.854;4.534;2023-06-24T04:37:43;17.70;99.90
40253;DHT22;25972;51.854;4.534;2023-06-24T04:40:10;17.80;99.90
40253;DHT22;25972;51.854;4.534;2023-06-24T04:42:36;17.80;99.90
40253;DHT22;25972;51.854;4.534;2023-06-24T04:45:02;17.80;99.90
40253;DHT22;25972;51.854;4.534;2023-06-24T04:47:31;17.80;99.90
40253;DHT22;25972;51.854;4.534;2023-06-24T04:49:57;17.90;99.90
40253;DHT22;25972;51.854;4.534;2023-06-24T04:52:24;18.10;99.90
40253;DHT22;25972;51.854;4.534;2023-06-24T04:54:50;18.90;99.90
40253;DHT22;25972;51.854;4.534;2023-06-24T04:57:25;20.00;99.90
40253;DHT22;25972;51.854;4.534;2023-06-24T04:59:51;21.30;99.90
40253;DHT22;25972;51.854;4.534;2023-06-24T05:02:18;22.30;99.90
40253;DHT22;25972;51.854;4.534;2023-06-24T05:04:44;22.90;99.90
40253;DHT22;25972;51.854;4.534;2023-06-24T05:07:10;23.50;99.90
40253;DHT22;25972;51.854;4.534;2023-06-24T05:09:37;24.00;99.90
40253;DHT22;25972;51.854;4.534;2023-06-24T05:12:05;24.50;26.40
40253;DHT22;25972;51.854;4.534;2023-06-24T05:14:34;25.00;1.00
40253;DHT22;25972;51.854;4.534;2023-06-24T05:17:01;25.60;1.00
40253;DHT22;25972;51.854;4.534;2023-06-24T05:19:29;25.40;1.00
40253;DHT22;25972;51.854;4.534;2023-06-24T05:21:56;25.60;1.00
40253;DHT22;25972;51.854;4.534;2023-06-24T05:24:22;25.90;1.00
40253;DHT22;25972;51.854;4.534;2023-06-24T05:26:52;26.40;1.00
40253;DHT22;25972;51.854;4.534;2023-06-24T05:29:18;26.80;1.00
40253;DHT22;25972;51.854;4.534;2023-06-24T05:31:44;26.90;1.00
40253;DHT22;25972;51.854;4.534;2023-06-24T05:34:12;26.80;1.00
40253;DHT22;25972;51.854;4.534;2023-06-24T05:36:38;27.30;1.00
40253;DHT22;25972;51.854;4.534;2023-06-24T05:39:04;27.70;1.00
40253;DHT22;25972;51.854;4.534;2023-06-24T05:41:42;27.60;1.00
40253;DHT22;25972;51.854;4.534;2023-06-24T05:44:10;28.20;1.00
40253;DHT22;25972;51.854;4.534;2023-06-24T05:46:36;28.40;1.00
40253;DHT22;25972;51.854;4.534;2023-06-24T05:49:03;28.30;1.00
40253;DHT22;25972;51.854;4.534;2023-06-24T05:51:29;28.60;1.00
40253;DHT22;25972;51.854;4.534;2023-06-24T05:54:05;28.50;1.00
40253;DHT22;25972;51.854;4.534;2023-06-24T05:56:33;27.90;1.00
40253;DHT22;25972;51.854;4.534;2023-06-24T05:58:59;27.60;1.00
40253;DHT22;25972;51.854;4.534;2023-06-24T06:01:27;27.60;1.00
40253;DHT22;25972;51.854;4.534;2023-06-24T06:04:04;27.70;1.00
40253;DHT22;25972;51.854;4.534;2023-06-24T06:06:30;27.70;1.00
40253;DHT22;25972;51.854;4.534;2023-06-24T06:08:56;27.90;1.00
40253;DHT22;25972;51.854;4.534;2023-06-24T06:11:22;28.10;1.00
40253;DHT22;25972;51.854;4.534;2023-06-24T06:13:48;27.90;1.00
40253;DHT22;25972;51.854;4.534;2023-06-24T06:16:14;27.90;1.00
40253;DHT22;25972;51.854;4.534;2023-06-24T06:18:42;27.70;1.00
40253;DHT22;25972;51.854;4.534;2023-06-24T06:21:09;27.90;1.00
40253;DHT22;25972;51.854;4.534;2023-06-24T06:23:35;27.70;1.00
40253;DHT22;25972;51.854;4.534;2023-06-24T06:26:01;27.20;1.00
40253;DHT22;25972;51.854;4.534;2023-06-24T06:28:28;27.00;1.00
40253;DHT22;25972;51.854;4.534;2023-06-24T06:30:54;26.80;1.00
40253;DHT22;25972;51.854;4.534;2023-06-24T06:33:33;26.70;1.00
40253;DHT22;25972;51.854;4.534;2023-06-24T06:36:00;26.50;1.00
40253;DHT22;25972;51.854;4.534;2023-06-24T06:38:27;26.70;1.00
40253;DHT22;25972;51.854;4.534;2023-06-24T06:40:53;26.80;1.00
40253;DHT22;25972;51.854;4.534;2023-06-24T06:43:19;26.90;1.00
40253;DHT22;25972;51.854;4.534;2023-06-24T06:45:56;26.60;1.00
40253;DHT22;25972;51.854;4.534;2023-06-24T06:48:22;26.40;1.00
40253;DHT22;25972;51.854;4.534;2023-06-24T06:50:48;26.60;1.00
40253;DHT22;25972;51.854;4.534;2023-06-24T06:53:16;26.80;1.00
40253;DHT22;25972;51.854;4.534;2023-06-24T06:55:51;26.80;1.00
40253;DHT22;25972;51.854;4.534;2023-06-24T06:58:17;26.90;1.00
40253;DHT22;25972;51.854;4.534;2023-06-24T07:00:44;27.10;1.00
40253;DHT22;25972;51.854;4.534;2023-06-24T07:03:12;27.00;1.00
40253;DHT22;25972;51.854;4.534;2023-06-24T07:05:38;26.70;1.00
40253;DHT22;25972;51.854;4.534;2023-06-24T07:08:05;26.80;1.00
40253;DHT22;25972;51.854;4.534;2023-06-24T07:10:33;26.70;1.00
40253;DHT22;25972;51.854;4.534;2023-06-24T07:13:00;26.30;1.00
40253;DHT22;25972;51.854;4.534;2023-06-24T07:15:26;26.20;1.00
40253;DHT22;25972;51.854;4.534;2023-06-24T07:17:52;26.10;1.00
40253;DHT22;25972;51.854;4.534;2023-06-24T07:20:19;26.30;1.00
40253;DHT22;25972;51.854;4.534;2023-06-24T07:22:49;26.30;1.00
40253;DHT22;25972;51.854;4.534;2023-06-24T07:25:20;26.50;1.00
40253;DHT22;25972;51.854;4.534;2023-06-24T07:27:47;26.30;1.00
40253;DHT22;25972;51.854;4.534;2023-06-24T07:30:14;25.80;1.00
40253;DHT22;25972;51.854;4.534;2023-06-24T07:32:40;25.80;1.00
40253;DHT22;25972;51.854;4.534;2023-06-24T07:35:07;25.70;1.00
40253;DHT22;25972;51.854;4.534;2023-06-24T07:37:42;25.50;1.00
40253;DHT22;25972;51.854;4.534;2023-06-24T07:40:09;25.80;1.00
40253;DHT22;25972;51.854;4.534;2023-06-24T07:42:35;26.10;1.00
40253;DHT22;25972;51.854;4.534;2023-06-24T07:45:03;26.10;1.00
40253;DHT22;25972;51.854;4.534;2023-06-24T07:47:29;26.20;1.00
40253;DHT22;25972;51.854;4.534;2023-06-24T07:49:55;26.40;1.00
40253;DHT22;25972;51.854;4.534;2023-06-24T07:52:21;26.70;1.00
40253;DHT22;25972;51.854;4.534;2023-06-24T07:54:48;27.00;1.00
40253;DHT22;25972;51.854;4.534;2023-06-24T07:57:14;27.10;1.00
40253;DHT22;25972;51.854;4.534;2023-06-24T07:59:40;27.00;1.00
40253;DHT22;25972;51.854;4.534;2023-06-24T08:02:20;26.80;1.00
40253;DHT22;25972;51.854;4.534;2023-06-24T08:04:46;27.00;1.00
40253;DHT22;25972;51.854;4.534;2023-06-24T08:07:13;27.20;1.00
40253;DHT22;25972;51.854;4.534;2023-06-24T08:09:39;27.50;1.00
40253;DHT22;25972;51.854;4.534;2023-06-24T08:12:05;27.20;1.00
40253;DHT22;25972;51.854;4.534;2023-06-24T08:14:31;27.00;1.00
40253;DHT22;25972;51.854;4.534;2023-06-24T08:16:58;26.60;1.00
40253;DHT22;25972;51.854;4.534;2023-06-24T08:19:25;26.60;1.00
40253;DHT22;25972;51.854;4.534;2023-06-24T08:21:51;26.60;1.00
40253;DHT22;25972;51.854;4.534;2023-06-24T08:24:17;26.90;1.00
40253;DHT22;25972;51.854;4.534;2023-06-24T08:26:43;26.50;1.00
40253;DHT22;25972;51.854;4.534;2023-06-24T08:29:10;26.90;1.00
40253;DHT22;25972;51.854;4.534;2023-06-24T08:31:36;26.40;1.00
40253;DHT22;25972;51.854;4.534;2023-06-24T08:34:02;26.70;1.00
40253;DHT22;25972;51.854;4.534;2023-06-24T08:36:30;26.70;1.00
40253;DHT22;25972;51.854;4.534;2023-06-24T08:38:56;26.50;1.00
40253;DHT22;25972;51.854;4.534;2023-06-24T08:41:24;26.80;1.00
40253;DHT22;25972;51.854;4.534;2023-06-24T08:43:51;27.20;1.00
40253;DHT22;25972;51.854;4.534;2023-06-24T08:46:24;27.30;1.00
40253;DHT22;25972;51.854;4.534;2023-06-24T08:48:58;27.30;1.00
40253;DHT22;25972;51.854;4.534;2023-06-24T08:51:29;27.40;1.00
40253;DHT22;25972;51.854;4.534;2023-06-24T08:53:58;27.60;1.00
40253;DHT22;25972;51.854;4.534;2023-06-24T08:56:25;27.70;1.00
40253;DHT22;25972;51.854;4.534;2023-06-24T08:58:51;27.60;1.00
40253;DHT22;25972;51.854;4.534;2023-06-24T09:01:17;27.80;1.00
40253;DHT22;25972;51.854;4.534;2023-06-24T09:03:44;27.80;1.00
40253;DHT22;25972;51.854;4.534;2023-06-24T09:06:11;27.90;1.00
40253;DHT22;25972;51.854;4.534;2023-06-24T09:08:52;28.20;1.00
40253;DHT22;25972;51.854;4.534;2023-06-24T09:11:22;28.50;1.00
40253;DHT22;25972;51.854;4.534;2023-06-24T09:13:54;28.60;1.00
40253;DHT22;25972;51.854;4.534;2023-06-24T09:16:20;28.60;1.00
40253;DHT22;25972;51.854;4.534;2023-06-24T09:18:56;28.40;1.00
40253;DHT22;25972;51.854;4.534;2023-06-24T09:21:23;28.70;1.00
40253;DHT22;25972;51.854;4.534;2023-06-24T09:23:53;28.50;1.00
40253;DHT22;25972;51.854;4.534;2023-06-24T09:26:19;28.40;1.00
40253;DHT22;25972;51.854;4.534;2023-06-24T09:28:48;28.70;1.00
40253;DHT22;25972;51.854;4.534;2023-06-24T09:31:18;28.80;1.00
40253;DHT22;25972;51.854;4.534;2023-06-24T09:33:45;28.80;1.00
40253;DHT22;25972;51.854;4.534;2023-06-24T09:36:12;28.90;1.00
40253;DHT22;25972;51.854;4.534;2023-06-24T09:38:41;28.50;1.00
40253;DHT22;25972;51.854;4.534;2023-06-24T09:41:09;28.30;1.00
40253;DHT22;25972;51.854;4.534;2023-06-24T09:43:45;28.20;1.00
40253;DHT22;25972;51.854;4.534;2023-06-24T09:46:11;28.60;1.00
40253;DHT22;25972;51.854;4.534;2023-06-24T09:48:37;28.60;1.00
40253;DHT22;25972;51.854;4.534;2023-06-24T09:51:04;28.90;1.00
40253;DHT22;25972;51.854;4.534;2023-06-24T09:53:32;28.50;1.00
40253;DHT22;25972;51.854;4.534;2023-06-24T09:56:04;28.70;1.00
40253;DHT22;25972;51.854;4.534;2023-06-24T09:58:36;28.60;1.00
40253;DHT22;25972;51.854;4.534;2023-06-24T10:01:04;28.60;1.00
40253;DHT22;25972;51.854;4.534;2023-06-24T10:03:33;29.00;1.00
40253;DHT22;25972;51.854;4.534;2023-06-24T10:05:59;29.00;1.00
40253;DHT22;25972;51.854;4.534;2023-06-24T10:08:31;28.70;1.00
40253;DHT22;25972;51.854;4.534;2023-06-24T10:11:10;28.60;1.00
40253;DHT22;25972;51.854;4.534;2023-06-24T10:13:41;28.70;1.00
40253;DHT22;25972;51.854;4.534;2023-06-24T10:16:11;28.90;1.00
40253;DHT22;25972;51.854;4.534;2023-06-24T10:18:44;28.80;1.00
40253;DHT22;25972;51.854;4.534;2023-06-24T10:21:16;28.20;1.00
40253;DHT22;25972;51.854;4.534;2023-06-24T10:23:52;28.50;1.00
40253;DHT22;25972;51.854;4.534;2023-06-24T10:26:28;28.40;1.00
40253;DHT22;25972;51.854;4.534;2023-06-24T10:29:32;28.50;1.00
40253;DHT22;25972;51.854;4.534;2023-06-24T10:32:07;28.40;1.00
40253;DHT22;25972;51.854;4.534;2023-06-24T10:34:38;28.60;1.00
40253;DHT22;25972;51.854;4.534;2023-06-24T10:37:09;28.20;1.00
40253;DHT22;25972;51.854;4.534;2023-06-24T10:42:37;28.50;1.00
40253;DHT22;25972;51.854;4.534;2023-06-24T10:45:23;28.80;1.00
40253;DHT22;25972;51.854;4.534;2023-06-24T10:47:51;28.90;1.00
40253;DHT22;25972;51.854;4.534;2023-06-24T10:50:25;29.00;1.00
40253;DHT22;25972;51.854;4.534;2023-06-24T10:52:52;29.20;1.00
40253;DHT22;25972;51.854;4.534;2023-06-24T10:55:23;29.30;1.00
40253;DHT22;25972;51.854;4.534;2023-06-24T10:57:50;29.60;1.00
40253;DHT22;25972;51.854;4.534;2023-06-24T11:00:21;29.60;1.00
40253;DHT22;25972;51.854;4.534;2023-06-24T11:02:49;29.80;1.00
40253;DHT22;25972;51.854;4.534;2023-06-24T11:05:15;29.20;1.00
40253;DHT22;25972;51.854;4.534;2023-06-24T11:07:41;29.00;1.00
40253;DHT22;25972;51.854;4.534;2023-06-24T11:10:11;28.90;1.00
40253;DHT22;25972;51.854;4.534;2023-06-24T11:12:38;28.80;1.00
40253;DHT22;25972;51.854;4.534;2023-06-24T11:15:09;29.20;1.00
40253;DHT22;25972;51.854;4.534;2023-06-24T11:17:37;28.90;1.00
40253;DHT22;25972;51.854;4.534;2023-06-24T11:20:08;28.80;1.00
40253;DHT22;25972;51.854;4.534;2023-06-24T11:22:35;28.80;1.00
40253;DHT22;25972;51.854;4.534;2023-06-24T11:25:02;28.90;1.00
40253;DHT22;25972;51.854;4.534;2023-06-24T11:27:29;28.90;1.00
40253;DHT22;25972;51.854;4.534;2023-06-24T11:29:57;29.40;1.00
40253;DHT22;25972;51.854;4.534;2023-06-24T11:32:35;29.20;1.00
40253;DHT22;25972;51.854;4.534;2023-06-24T11:35:03;29.40;1.00
40253;DHT22;25972;51.854;4.534;2023-06-24T11:37:32;29.20;1.00
40253;DHT22;25972;51.854;4.534;2023-06-24T11:40:02;29.30;1.00
40253;DHT22;25972;51.854;4.534;2023-06-24T11:42:36;29.60;1.00
40253;DHT22;25972;51.854;4.534;2023-06-24T11:45:04;29.70;1.00
40253;DHT22;25972;51.854;4.534;2023-06-24T11:47:34;29.90;1.00
40253;DHT22;25972;51.854;4.534;2023-06-24T11:50:01;30.10;1.00
40253;DHT22;25972;51.854;4.534;2023-06-24T11:52:38;30.20;1.00
40253;DHT22;25972;51.854;4.534;2023-06-24T11:55:11;30.10;1.00
40253;DHT22;25972;51.854;4.534;2023-06-24T11:57:51;29.90;1.00
40253;DHT22;25972;51.854;4.534;2023-06-24T12:00:20;30.10;1.00
40253;DHT22;25972;51.854;4.534;2023-06-24T12:02:49;29.90;1.00
40253;DHT22;25972;51.854;4.534;2023-06-24T12:05:20;30.30;1.00
40253;DHT22;25972;51.854;4.534;2023-06-24T12:08:06;29.70;1.00
40253;DHT22;25972;51.854;4.534;2023-06-24T12:10:33;29.90;1.00
40253;DHT22;25972;51.854;4.534;2023-06-24T12:13:01;29.80;1.00
40253;DHT22;25972;51.854;4.534;2023-06-24T12:15:28;29.90;1.00
40253;DHT22;25972;51.854;4.534;2023-06-24T12:18:04;30.20;1.00
40253;DHT22;25972;51.854;4.534;2023-06-24T12:20:31;30.20;1.00
40253;DHT22;25972;51.854;4.534;2023-06-24T12:22:58;30.10;1.00
40253;DHT22;25972;51.854;4.534;2023-06-24T12:25:26;30.00;1.00
40253;DHT22;25972;51.854;4.534;2023-06-24T12:27:52;30.20;1.00
40253;DHT22;25972;51.854;4.534;2023-06-24T12:30:18;30.50;1.00
40253;DHT22;25972;51.854;4.534;2023-06-24T12:32:46;30.30;1.00
40253;DHT22;25972;51.854;4.534;2023-06-24T12:35:12;30.20;1.00
40253;DHT22;25972;51.854;4.534;2023-06-24T12:37:39;30.00;1.00
40253;DHT22;25972;51.854;4.534;2023-06-24T12:40:06;30.10;1.00
40253;DHT22;25972;51.854;4.534;2023-06-24T12:42:34;30.00;1.00
40253;DHT22;25972;51.854;4.534;2023-06-24T12:45:07;30.10;1.00
40253;DHT22;25972;51.854;4.534;2023-06-24T12:47:34;30.20;1.00
40253;DHT22;25972;51.854;4.534;2023-06-24T12:50:00;30.20;1.00
40253;DHT22;25972;51.854;4.534;2023-06-24T12:52:26;30.30;1.00
40253;DHT22;25972;51.854;4.534;2023-06-24T12:54:52;30.50;1.00
40253;DHT22;25972;51.854;4.534;2023-06-24T12:57:27;30.30;1.00
40253;DHT22;25972;51.854;4.534;2023-06-24T12:59:55;30.20;1.00
40253;DHT22;25972;51.854;4.534;2023-06-24T13:02:21;30.10;1.00
40253;DHT22;25972;51.854;4.534;2023-06-24T13:04:47;30.10;1.00
40253;DHT22;25972;51.854;4.534;2023-06-24T13:07:13;30.00;1.00
40253;DHT22;25972;51.854;4.534;2023-06-24T13:09:45;30.00;1.00
40253;DHT22;25972;51.854;4.534;2023-06-24T13:12:15;30.10;1.00
40253;DHT22;25972;51.854;4.534;2023-06-24T13:14:41;30.10;1.00
40253;DHT22;25972;51.854;4.534;2023-06-24T13:17:08;30.20;1.00
40253;DHT22;25972;51.854;4.534;2023-06-24T13:19:34;30.10;1.00
40253;DHT22;25972;51.854;4.534;2023-06-24T13:22:05;30.10;1.00
40253;DHT22;25972;51.854;4.534;2023-06-24T13:24:38;29.90;1.00
40253;DHT22;25972;51.854;4.534;2023-06-24T13:27:04;29.70;1.00
40253;DHT22;25972;51.854;4.534;2023-06-24T13:29:30;29.50;1.00
40253;DHT22;25972;51.854;4.534;2023-06-24T13:31:57;29.70;1.00
40253;DHT22;25972;51.854;4.534;2023-06-24T13:34:25;29.70;1.00
40253;DHT22;25972;51.854;4.534;2023-06-24T13:36:51;29.70;1.00
40253;DHT22;25972;51.854;4.534;2023-06-24T13:39:18;29.80;1.00
40253;DHT22;25972;51.854;4.534;2023-06-24T13:41:45;29.60;1.00
40253;DHT22;25972;51.854;4.534;2023-06-24T13:44:11;29.60;1.00
40253;DHT22;25972;51.854;4.534;2023-06-24T13:46:37;29.80;1.00
40253;DHT22;25972;51.854;4.534;2023-06-24T13:49:03;29.90;1.00
40253;DHT22;25972;51.854;4.534;2023-06-24T13:51:34;29.90;1.00
40253;DHT22;25972;51.854;4.534;2023-06-24T13:54:00;29.90;1.00
40253;DHT22;25972;51.854;4.534;2023-06-24T13:56:27;29.80;1.00
40253;DHT22;25972;51.854;4.534;2023-06-24T13:58:53;29.90;1.00
40253;DHT22;25972;51.854;4.534;2023-06-24T14:01:20;29.80;1.00
40253;DHT22;25972;51.854;4.534;2023-06-24T14:03:55;29.70;1.00
40253;DHT22;25972;51.854;4.534;2023-06-24T14:06:22;29.40;1.00
40253;DHT22;25972;51.854;4.534;2023-06-24T14:08:51;29.50;1.00
40253;DHT22;25972;51.854;4.534;2023-06-24T14:11:17;29.50;1.00
40253;DHT22;25972;51.854;4.534;2023-06-24T14:13:44;29.40;1.00
40253;DHT22;25972;51.854;4.534;2023-06-24T14:16:14;29.10;1.00
40253;DHT22;25972;51.854;4.534;2023-06-24T14:18:43;29.20;1.00
40253;DHT22;25972;51.854;4.534;2023-06-24T14:21:09;29.30;1.00
40253;DHT22;25972;51.854;4.534;2023-06-24T14:23:37;29.30;1.00
40253;DHT22;25972;51.854;4.534;2023-06-24T14:26:04;29.40;1.00
40253;DHT22;25972;51.854;4.534;2023-06-24T14:28:35;29.30;1.00
40253;DHT22;25972;51.854;4.534;2023-06-24T14:31:04;29.30;1.00
40253;DHT22;25972;51.854;4.534;2023-06-24T14:33:33;29.50;1.00
40253;DHT22;25972;51.854;4.534;2023-06-24T14:35:59;29.60;1.00
40253;DHT22;25972;51.854;4.534;2023-06-24T14:38:25;29.40;1.00
40253;DHT22;25972;51.854;4.534;2023-06-24T14:40:52;29.30;1.00
40253;DHT22;25972;51.854;4.534;2023-06-24T14:43:19;29.40;1.00
40253;DHT22;25972;51.854;4.534;2023-06-24T14:45:46;29.40;1.00
40253;DHT22;25972;51.854;4.534;2023-06-24T14:48:12;29.40;1.00
40253;DHT22;25972;51.854;4.534;2023-06-24T14:50:38;29.40;1.00
40253;DHT22;25972;51.854;4.534;2023-06-24T14:53:04;29.40;1.00
40253;DHT22;25972;51.854;4.534;2023-06-24T14:55:30;28.90;1.00
40253;DHT22;25972;51.854;4.534;2023-06-24T14:57:57;29.10;1.00
40253;DHT22;25972;51.854;4.534;2023-06-24T15:00:25;29.00;1.00
40253;DHT22;25972;51.854;4.534;2023-06-24T15:02:51;29.10;1.00
40253;DHT22;25972;51.854;4.534;2023-06-24T15:05:17;29.20;1.00
40253;DHT22;25972;51.854;4.534;2023-06-24T15:07:43;29.20;1.00
40253;DHT22;25972;51.854;4.534;2023-06-24T15:10:09;29.20;1.00
40253;DHT22;25972;51.854;4.534;2023-06-24T15:12:36;29.10;1.00
40253;DHT22;25972;51.854;4.534;2023-06-24T15:15:04;29.20;1.00
40253;DHT22;25972;51.854;4.534;2023-06-24T15:17:31;29.20;1.00
40253;DHT22;25972;51.854;4.534;2023-06-24T15:20:00;29.10;1.00
40253;DHT22;25972;51.854;4.534;2023-06-24T15:22:26;29.10;1.00
40253;DHT22;25972;51.854;4.534;2023-06-24T15:24:59;29.10;1.00
40253;DHT22;25972;51.854;4.534;2023-06-24T15:27:25;29.20;1.00
40253;DHT22;25972;51.854;4.534;2023-06-24T15:29:51;29.00;1.00
40253;DHT22;25972;51.854;4.534;2023-06-24T15:32:17;28.90;1.00
40253;DHT22;25972;51.854;4.534;2023-06-24T15:34:45;29.00;1.00
40253;DHT22;25972;51.854;4.534;2023-06-24T15:37:11;29.00;1.00
40253;DHT22;25972;51.854;4.534;2023-06-24T15:39:40;28.90;1.00
40253;DHT22;25972;51.854;4.534;2023-06-24T15:42:07;28.90;1.00
40253;DHT22;25972;51.854;4.534;2023-06-24T15:44:33;29.00;1.00
40253;DHT22;25972;51.854;4.534;2023-06-24T15:47:00;28.90;1.00
40253;DHT22;25972;51.854;4.534;2023-06-24T15:49:26;29.00;1.00
40253;DHT22;25972;51.854;4.534;2023-06-24T15:51:54;28.90;1.00
40253;DHT22;25972;51.854;4.534;2023-06-24T15:54:20;28.90;1.00
40253;DHT22;25972;51.854;4.534;2023-06-24T15:56:46;29.00;1.00